createdAt,value
2018-08-09T00:00:41.210Z,0.00
2018-08-09T00:01:41.152Z,0.00
2018-08-09T00:02:41.059Z,0.00
2018-08-09T00:03:40.983Z,0.00
2018-08-09T00:04:40.908Z,0.00
2018-08-09T00:05:40.834Z,0.00
2018-08-09T00:06:40.759Z,0.00
2018-08-09T00:07:40.684Z,0.00
2018-08-09T00:08:40.612Z,0.00
2018-08-09T00:09:40.548Z,0.00
2018-08-09T00:10:40.459Z,0.00
2018-08-09T00:11:40.385Z,0.00
2018-08-09T00:12:40.309Z,0.00
2018-08-09T00:13:40.235Z,0.00
2018-08-09T00:14:40.160Z,0.00
2018-08-09T00:15:40.093Z,0.00
2018-08-09T00:16:40.010Z,0.00
2018-08-09T00:17:39.935Z,0.00
2018-08-09T00:18:39.860Z,0.00
2018-08-09T00:19:39.785Z,0.00
2018-08-09T00:20:39.710Z,0.00
2018-08-09T00:21:39.635Z,0.00
2018-08-09T00:22:39.560Z,0.00
2018-08-09T00:23:39.501Z,0.00
2018-08-09T00:24:39.411Z,0.00
2018-08-09T00:25:39.336Z,0.00
2018-08-09T00:26:39.261Z,0.00
2018-08-09T00:27:39.199Z,0.00
2018-08-09T00:28:39.115Z,0.00
2018-08-09T00:29:39.037Z,0.00
2018-08-09T00:30:38.961Z,0.00
2018-08-09T00:31:38.888Z,0.00
2018-08-09T00:32:38.800Z,0.00
2018-08-09T00:33:38.728Z,0.00
2018-08-09T00:34:38.650Z,0.00
2018-08-09T00:35:38.575Z,0.00
2018-08-09T00:36:38.500Z,0.00
2018-08-09T00:37:38.428Z,0.00
2018-08-09T00:38:38.350Z,0.00
2018-08-09T00:39:38.276Z,0.00
2018-08-09T00:40:38.200Z,0.00
2018-08-09T00:41:38.132Z,0.00
2018-08-09T00:42:38.051Z,0.00
2018-08-09T00:43:37.977Z,0.00
2018-08-09T00:44:37.901Z,0.00
2018-08-09T00:45:37.831Z,0.00
2018-08-09T00:46:37.752Z,0.00
2018-08-09T00:47:37.677Z,0.00
2018-08-09T00:48:37.601Z,0.00
2018-08-09T00:49:37.534Z,0.00
2018-08-09T00:50:37.453Z,0.00
2018-08-09T00:51:37.378Z,0.00
2018-08-09T00:52:37.302Z,0.00
2018-08-09T00:53:37.234Z,0.00
2018-08-09T00:54:37.152Z,0.00
2018-08-09T00:55:37.079Z,0.00
2018-08-09T00:56:37.002Z,0.00
2018-08-09T00:57:36.928Z,0.00
2018-08-09T00:58:36.852Z,0.00
2018-08-09T00:59:36.777Z,0.00
2018-08-09T01:00:36.705Z,0.00
2018-08-09T01:01:36.627Z,0.00
2018-08-09T01:02:36.553Z,0.00
2018-08-09T01:03:36.466Z,0.00
2018-08-09T01:04:36.392Z,0.00
2018-08-09T01:05:36.315Z,0.00
2018-08-09T01:06:36.240Z,0.00
2018-08-09T01:07:36.165Z,0.00
2018-08-09T01:08:36.091Z,0.00
2018-08-09T01:09:36.015Z,0.00
2018-08-09T01:10:35.954Z,0.00
2018-08-09T01:11:35.866Z,0.00
2018-08-09T01:12:35.804Z,0.00
2018-08-09T01:13:35.716Z,0.00
2018-08-09T01:14:35.642Z,0.00
2018-08-09T01:15:35.570Z,0.00
2018-08-09T01:16:35.493Z,0.00
2018-08-09T01:17:35.417Z,0.00
2018-08-09T01:18:35.342Z,0.00
2018-08-09T01:19:35.267Z,0.00
2018-08-09T01:20:35.192Z,0.00
2018-08-09T01:21:35.117Z,0.00
2018-08-09T01:22:35.043Z,0.00
2018-08-09T01:23:34.969Z,0.00
2018-08-09T01:24:34.892Z,0.00
2018-08-09T01:25:34.810Z,0.00
2018-08-09T01:26:34.731Z,0.00
2018-08-09T01:27:34.656Z,0.00
2018-08-09T01:28:34.592Z,0.00
2018-08-09T01:29:34.507Z,0.00
2018-08-09T01:30:34.433Z,0.00
2018-08-09T01:31:34.357Z,0.00
2018-08-09T01:32:34.282Z,0.00
2018-08-09T01:33:34.207Z,0.00
2018-08-09T01:34:34.162Z,0.00
2018-08-09T01:35:34.058Z,0.00
2018-08-09T01:36:33.984Z,0.00
2018-08-09T01:37:33.907Z,0.00
2018-08-09T01:38:33.833Z,0.00
2018-08-09T01:39:33.758Z,0.00
2018-08-09T01:40:33.671Z,0.00
2018-08-09T01:41:33.595Z,0.00
2018-08-09T01:42:33.533Z,0.00
2018-08-09T01:43:33.444Z,0.00
2018-08-09T01:44:33.371Z,0.00
2018-08-09T01:45:33.294Z,0.00
2018-08-09T01:46:33.219Z,0.00
2018-08-09T01:47:33.145Z,0.00
2018-08-09T01:48:33.083Z,0.00
2018-08-09T01:49:32.997Z,0.00
2018-08-09T01:50:32.920Z,0.00
2018-08-09T01:51:32.847Z,0.00
2018-08-09T01:52:32.772Z,0.00
2018-08-09T01:53:32.696Z,0.00
2018-08-09T01:54:32.620Z,0.00
2018-08-09T01:55:32.546Z,0.00
2018-08-09T01:56:32.471Z,0.00
2018-08-09T01:57:32.396Z,0.00
2018-08-09T01:58:32.324Z,0.00
2018-08-09T01:59:32.235Z,0.00
2018-08-09T02:00:32.160Z,0.00
2018-08-09T02:01:32.085Z,0.00
2018-08-09T02:02:32.010Z,0.00
2018-08-09T02:03:31.936Z,0.00
2018-08-09T02:04:31.885Z,0.00
2018-08-09T02:05:31.785Z,0.00
2018-08-09T02:06:31.710Z,0.00
2018-08-09T02:07:31.636Z,0.00
2018-08-09T02:08:31.560Z,0.00
2018-08-09T02:09:31.485Z,0.00
2018-08-09T02:10:31.411Z,0.00
2018-08-09T02:11:31.336Z,0.00
2018-08-09T02:12:31.262Z,0.00
2018-08-09T02:13:31.175Z,0.00
2018-08-09T02:14:31.103Z,0.00
2018-08-09T02:15:31.023Z,0.00
2018-08-09T02:16:30.948Z,0.00
2018-08-09T02:17:30.873Z,0.00
2018-08-09T02:18:30.801Z,0.00
2018-08-09T02:19:30.724Z,0.00
2018-08-09T02:20:30.652Z,0.00
2018-08-09T02:21:30.575Z,0.00
2018-08-09T02:22:30.499Z,0.00
2018-08-09T02:23:30.424Z,0.00
2018-08-09T02:24:30.349Z,0.00
2018-08-09T02:25:30.274Z,0.00
2018-08-09T02:26:30.199Z,0.00
2018-08-09T02:27:30.113Z,0.00
2018-08-09T02:28:30.040Z,0.00
2018-08-09T02:29:29.964Z,0.00
2018-08-09T02:30:29.889Z,0.00
2018-08-09T02:31:29.813Z,0.00
2018-08-09T02:32:29.739Z,0.00
2018-08-09T02:33:29.670Z,0.00
2018-08-09T02:34:29.592Z,0.00
2018-08-09T02:35:29.517Z,0.00
2018-08-09T02:36:29.439Z,0.00
2018-08-09T02:37:29.365Z,0.00
2018-08-09T02:38:29.277Z,0.00
2018-08-09T02:39:29.202Z,0.00
2018-08-09T02:40:29.127Z,0.00
2018-08-09T02:41:29.051Z,0.00
2018-08-09T02:42:28.983Z,0.00
2018-08-09T02:43:28.901Z,0.00
2018-08-09T02:44:28.827Z,0.00
2018-08-09T02:45:28.751Z,0.00
2018-08-09T02:46:28.677Z,0.00
2018-08-09T02:47:28.602Z,0.00
2018-08-09T02:48:28.519Z,0.00
2018-08-09T02:49:28.440Z,0.00
2018-08-09T02:50:28.367Z,0.00
2018-08-09T02:51:28.292Z,0.00
2018-08-09T02:52:28.217Z,0.00
2018-08-09T02:53:28.141Z,0.00
2018-08-09T02:54:28.067Z,0.00
2018-08-09T02:55:27.992Z,0.00
2018-08-09T02:56:27.917Z,0.00
2018-08-09T02:57:28.042Z,0.00
2018-08-09T02:58:27.766Z,0.00
2018-08-09T02:59:27.679Z,0.00
2018-08-09T03:00:27.606Z,0.00
2018-08-09T03:01:27.551Z,0.00
2018-08-09T03:02:27.453Z,0.00
2018-08-09T03:03:27.383Z,0.00
2018-08-09T03:04:27.317Z,0.00
2018-08-09T03:05:27.229Z,0.00
2018-08-09T03:06:27.154Z,0.00
2018-08-09T03:07:27.079Z,4.00
2018-08-09T03:08:26.993Z,4.00
2018-08-09T03:09:26.920Z,4.00
2018-08-09T03:10:26.843Z,0.00
2018-08-09T03:11:26.768Z,4.00
2018-08-09T03:12:26.693Z,4.00
2018-08-09T03:13:26.617Z,8.00
2018-08-09T03:14:26.545Z,4.00
2018-08-09T03:15:26.471Z,8.00
2018-08-09T03:16:26.393Z,8.00
2018-08-09T03:17:26.318Z,12.00
2018-08-09T03:18:26.231Z,8.00
2018-08-09T03:19:26.155Z,12.00
2018-08-09T03:20:26.080Z,12.00
2018-08-09T03:21:26.006Z,16.00
2018-08-09T03:22:25.931Z,20.00
2018-08-09T03:23:25.855Z,20.00
2018-08-09T03:24:25.901Z,24.00
2018-08-09T03:25:25.705Z,24.00
2018-08-09T03:26:25.631Z,28.00
2018-08-09T03:27:25.545Z,32.00
2018-08-09T03:28:25.470Z,36.00
2018-08-09T03:29:25.396Z,40.00
2018-08-09T03:30:25.322Z,44.00
2018-08-09T03:31:25.246Z,52.00
2018-08-09T03:32:25.170Z,60.00
2018-08-09T03:33:25.098Z,60.00
2018-08-09T03:34:25.020Z,68.00
2018-08-09T03:35:24.947Z,76.00
2018-08-09T03:36:24.857Z,84.00
2018-08-09T03:37:24.782Z,88.00
2018-08-09T03:38:24.709Z,96.00
2018-08-09T03:39:24.644Z,104.00
2018-08-09T03:40:24.561Z,112.00
2018-08-09T03:41:24.482Z,120.00
2018-08-09T03:42:24.408Z,128.00
2018-08-09T03:43:24.332Z,140.00
2018-08-09T03:44:24.257Z,152.00
2018-08-09T03:45:24.171Z,160.00
2018-08-09T03:46:24.096Z,172.00
2018-08-09T03:47:24.023Z,188.00
2018-08-09T03:48:23.947Z,200.00
2018-08-09T03:49:23.873Z,212.00
2018-08-09T03:50:23.797Z,228.00
2018-08-09T03:51:23.722Z,244.00
2018-08-09T03:52:23.647Z,256.00
2018-08-09T03:53:23.559Z,272.00
2018-08-09T03:54:23.496Z,292.00
2018-08-09T03:55:23.409Z,308.00
2018-08-09T03:56:23.335Z,324.00
2018-08-09T03:57:23.262Z,336.00
2018-08-09T03:58:23.260Z,356.00
2018-08-09T03:59:23.110Z,368.00
2018-08-09T04:00:23.037Z,384.00
2018-08-09T04:01:22.960Z,400.00
2018-08-09T04:02:22.873Z,412.00
2018-08-09T04:03:22.798Z,428.00
2018-08-09T04:04:22.723Z,440.00
2018-08-09T04:05:22.648Z,460.00
2018-08-09T04:06:22.574Z,476.00
2018-08-09T04:07:22.499Z,500.00
2018-08-09T04:08:22.424Z,524.00
2018-08-09T04:09:22.341Z,548.00
2018-08-09T04:10:22.264Z,568.00
2018-08-09T04:11:22.187Z,592.00
2018-08-09T04:12:22.110Z,612.00
2018-08-09T04:13:22.036Z,636.00
2018-08-09T04:14:21.961Z,660.00
2018-08-09T04:15:21.886Z,684.00
2018-08-09T04:16:21.811Z,708.00
2018-08-09T04:17:21.749Z,736.00
2018-08-09T04:18:21.649Z,764.00
2018-08-09T04:19:21.579Z,788.00
2018-08-09T04:20:21.540Z,816.00
2018-08-09T04:21:21.426Z,840.00
2018-08-09T04:22:21.354Z,868.00
2018-08-09T04:23:21.278Z,888.00
2018-08-09T04:24:21.202Z,916.00
2018-08-09T04:25:21.114Z,944.00
2018-08-09T04:26:21.057Z,968.00
2018-08-09T04:27:20.965Z,996.00
2018-08-09T04:28:20.891Z,1024.00
2018-08-09T04:29:20.812Z,1052.00
2018-08-09T04:30:20.738Z,1080.00
2018-08-09T04:31:20.663Z,1108.00
2018-08-09T04:32:20.588Z,1140.00
2018-08-09T04:33:20.517Z,1168.00
2018-08-09T04:34:20.428Z,1192.00
2018-08-09T04:35:20.352Z,1216.00
2018-08-09T04:36:20.278Z,1244.00
2018-08-09T04:37:20.202Z,1268.00
2018-08-09T04:38:20.128Z,1292.00
2018-08-09T04:39:20.055Z,1324.00
2018-08-09T04:40:19.979Z,1344.00
2018-08-09T04:41:19.902Z,1364.00
2018-08-09T04:42:19.816Z,1388.00
2018-08-09T04:43:19.739Z,1412.00
2018-08-09T04:44:19.664Z,1436.00
2018-08-09T04:45:19.590Z,1460.00
2018-08-09T04:46:19.515Z,1480.00
2018-08-09T04:47:19.453Z,1504.00
2018-08-09T04:48:19.364Z,1516.00
2018-08-09T04:49:19.300Z,1540.00
2018-08-09T04:50:19.216Z,1564.00
2018-08-09T04:51:19.130Z,1584.00
2018-08-09T04:52:19.053Z,1640.00
2018-08-09T04:53:18.980Z,1684.00
2018-08-09T04:54:18.903Z,1724.00
2018-08-09T04:55:18.829Z,1732.00
2018-08-09T04:56:18.754Z,1740.00
2018-08-09T04:57:18.679Z,1712.00
2018-08-09T04:58:18.634Z,1736.00
2018-08-09T04:59:18.529Z,1752.00
2018-08-09T05:00:18.441Z,1768.00
2018-08-09T05:01:18.366Z,1784.00
2018-08-09T05:02:18.292Z,1804.00
2018-08-09T05:03:18.217Z,1828.00
2018-08-09T05:04:18.141Z,1848.00
2018-08-09T05:05:18.079Z,1864.00
2018-08-09T05:06:17.992Z,1880.00
2018-08-09T05:07:17.917Z,1896.00
2018-08-09T05:08:17.849Z,1916.00
2018-08-09T05:09:17.782Z,1940.00
2018-08-09T05:10:17.726Z,1956.00
2018-08-09T05:11:17.607Z,1984.00
2018-08-09T05:12:17.542Z,2008.00
2018-08-09T05:13:17.456Z,2032.00
2018-08-09T05:14:17.387Z,2056.00
2018-08-09T05:15:17.307Z,2076.00
2018-08-09T05:16:17.232Z,2104.00
2018-08-09T05:17:17.157Z,2124.00
2018-08-09T05:18:17.082Z,2152.00
2018-08-09T05:19:17.008Z,2180.00
2018-08-09T05:20:16.931Z,2200.00
2018-08-09T05:21:16.847Z,2224.00
2018-08-09T05:22:16.769Z,2248.00
2018-08-09T05:23:16.753Z,2272.00
2018-08-09T05:24:16.633Z,2292.00
2018-08-09T05:25:16.546Z,2336.00
2018-08-09T05:26:16.470Z,2328.00
2018-08-09T05:27:16.395Z,2356.00
2018-08-09T05:28:16.332Z,2372.00
2018-08-09T05:29:16.247Z,2384.00
2018-08-09T05:30:16.171Z,2404.00
2018-08-09T05:31:16.095Z,2420.00
2018-08-09T05:32:16.009Z,2444.00
2018-08-09T05:33:15.933Z,2472.00
2018-08-09T05:34:15.928Z,2508.00
2018-08-09T05:35:15.784Z,2528.00
2018-08-09T05:36:15.713Z,2548.00
2018-08-09T05:37:15.633Z,2536.00
2018-08-09T05:38:15.562Z,2552.00
2018-08-09T05:39:15.483Z,2576.00
2018-08-09T05:40:15.409Z,2592.00
2018-08-09T05:41:15.335Z,2616.00
2018-08-09T05:42:15.259Z,2628.00
2018-08-09T05:43:15.185Z,2656.00
2018-08-09T05:44:15.105Z,2672.00
2018-08-09T05:45:15.071Z,2688.00
2018-08-09T05:46:14.946Z,2704.00
2018-08-09T05:47:14.874Z,2728.00
2018-08-09T05:48:14.797Z,2740.00
2018-08-09T05:49:14.721Z,2760.00
2018-08-09T05:50:14.650Z,2776.00
2018-08-09T05:51:14.573Z,2800.00
2018-08-09T05:52:14.497Z,2820.00
2018-08-09T05:53:14.455Z,2848.00
2018-08-09T05:54:14.348Z,2876.00
2018-08-09T05:55:14.273Z,2900.00
2018-08-09T05:56:14.204Z,2916.00
2018-08-09T05:57:14.123Z,2940.00
2018-08-09T05:58:14.060Z,2956.00
2018-08-09T05:59:13.973Z,2980.00
2018-08-09T06:00:13.886Z,3000.00
2018-08-09T06:01:13.826Z,3024.00
2018-08-09T06:02:13.737Z,3036.00
2018-08-09T06:03:13.661Z,3052.00
2018-08-09T06:04:13.586Z,3068.00
2018-08-09T06:05:13.511Z,3084.00
2018-08-09T06:06:13.437Z,3092.00
2018-08-09T06:07:13.363Z,3108.00
2018-08-09T06:08:13.289Z,3128.00
2018-08-09T06:09:13.214Z,3144.00
2018-08-09T06:10:13.137Z,3164.00
2018-08-09T06:11:13.066Z,3176.00
2018-08-09T06:12:12.987Z,3188.00
2018-08-09T06:13:12.913Z,3204.00
2018-08-09T06:14:12.843Z,3228.00
2018-08-09T06:15:12.763Z,3248.00
2018-08-09T06:16:12.689Z,3280.00
2018-08-09T06:17:12.613Z,3296.00
2018-08-09T06:18:12.543Z,3324.00
2018-08-09T06:19:12.464Z,3348.00
2018-08-09T06:20:12.389Z,3368.00
2018-08-09T06:21:12.315Z,3404.00
2018-08-09T06:22:12.242Z,3440.00
2018-08-09T06:23:12.164Z,3460.00
2018-08-09T06:24:12.089Z,3484.00
2018-08-09T06:25:12.014Z,3508.00
2018-08-09T06:26:11.953Z,3520.00
2018-08-09T06:27:11.864Z,3548.00
2018-08-09T06:28:11.790Z,3552.00
2018-08-09T06:29:11.714Z,3580.00
2018-08-09T06:30:11.655Z,3604.00
2018-08-09T06:31:11.565Z,3632.00
2018-08-09T06:32:11.489Z,3660.00
2018-08-09T06:33:11.418Z,3708.00
2018-08-09T06:34:11.345Z,3740.00
2018-08-09T06:35:11.266Z,3764.00
2018-08-09T06:36:11.191Z,3804.00
2018-08-09T06:37:11.115Z,3824.00
2018-08-09T06:38:11.041Z,3856.00
2018-08-09T06:39:10.965Z,3884.00
2018-08-09T06:40:10.891Z,3908.00
2018-08-09T06:41:10.815Z,3928.00
2018-08-09T06:42:10.740Z,3956.00
2018-08-09T06:43:10.666Z,3988.00
2018-08-09T06:44:10.590Z,4004.00
2018-08-09T06:45:10.516Z,4036.00
2018-08-09T06:46:10.441Z,4052.00
2018-08-09T06:47:10.365Z,4080.00
2018-08-09T06:48:10.291Z,4132.00
2018-08-09T06:49:10.219Z,4188.00
2018-08-09T06:50:10.145Z,4204.00
2018-08-09T06:51:10.066Z,4812.00
2018-08-09T06:52:09.993Z,4572.00
2018-08-09T06:53:09.917Z,5824.00
2018-08-09T06:54:09.846Z,5220.00
2018-08-09T06:55:09.766Z,4480.00
2018-08-09T06:56:09.732Z,4452.00
2018-08-09T06:57:09.616Z,4600.00
2018-08-09T06:58:09.543Z,4804.00
2018-08-09T06:59:09.468Z,4728.00
2018-08-09T07:00:09.391Z,4636.00
2018-08-09T07:01:09.324Z,4732.00
2018-08-09T07:02:09.242Z,4664.00
2018-08-09T07:03:09.168Z,4652.00
2018-08-09T07:04:09.093Z,4740.00
2018-08-09T07:05:09.018Z,4828.00
2018-08-09T07:06:08.944Z,4880.00
2018-08-09T07:07:08.869Z,4944.00
2018-08-09T07:08:08.796Z,5028.00
2018-08-09T07:09:08.730Z,5064.00
2018-08-09T07:10:08.655Z,5112.00
2018-08-09T07:11:08.580Z,5172.00
2018-08-09T07:12:08.513Z,5220.00
2018-08-09T07:13:08.431Z,5292.00
2018-08-09T07:14:08.359Z,5356.00
2018-08-09T07:15:08.281Z,5428.00
2018-08-09T07:16:08.221Z,5576.00
2018-08-09T07:17:08.132Z,5568.00
2018-08-09T07:18:08.056Z,5644.00
2018-08-09T07:19:07.981Z,5708.00
2018-08-09T07:20:07.965Z,5776.00
2018-08-09T07:21:07.834Z,5876.00
2018-08-09T07:22:07.770Z,5948.00
2018-08-09T07:23:07.695Z,6028.00
2018-08-09T07:24:07.620Z,6036.00
2018-08-09T07:25:07.549Z,6300.00
2018-08-09T07:26:07.482Z,6780.00
2018-08-09T07:27:07.397Z,8156.00
2018-08-09T07:28:07.320Z,8648.00
2018-08-09T07:29:07.245Z,8076.00
2018-08-09T07:30:07.171Z,9340.00
2018-08-09T07:31:07.121Z,9160.00
2018-08-09T07:32:07.032Z,10652.00
2018-08-09T07:33:06.971Z,9420.00
2018-08-09T07:34:06.883Z,12236.00
2018-08-09T07:35:06.808Z,14008.00
2018-08-09T07:36:06.733Z,14892.00
2018-08-09T07:37:06.671Z,15176.00
2018-08-09T07:38:06.598Z,15272.00
2018-08-09T07:39:06.523Z,15660.00
2018-08-09T07:40:06.447Z,15444.00
2018-08-09T07:41:06.371Z,14620.00
2018-08-09T07:42:06.308Z,13840.00
2018-08-09T07:43:06.233Z,13516.00
2018-08-09T07:44:06.172Z,13352.00
2018-08-09T07:45:06.084Z,13456.00
2018-08-09T07:46:06.022Z,13660.00
2018-08-09T07:47:05.948Z,14232.00
2018-08-09T07:48:05.873Z,15628.00
2018-08-09T07:49:05.811Z,15968.00
2018-08-09T07:50:05.735Z,16128.00
2018-08-09T07:51:05.660Z,16736.00
2018-08-09T07:52:05.598Z,15392.00
2018-08-09T07:53:05.524Z,15136.00
2018-08-09T07:54:05.461Z,14740.00
2018-08-09T07:55:05.386Z,12064.00
2018-08-09T07:56:05.313Z,9636.00
2018-08-09T07:57:05.346Z,8844.00
2018-08-09T07:58:05.173Z,8708.00
2018-08-09T07:59:05.112Z,8668.00
2018-08-09T08:00:05.036Z,8644.00
2018-08-09T08:01:04.975Z,8632.00
2018-08-09T08:02:04.899Z,8580.00
2018-08-09T08:03:04.842Z,8584.00
2018-08-09T08:04:04.762Z,8556.00
2018-08-09T08:05:04.700Z,8544.00
2018-08-09T08:06:04.649Z,8544.00
2018-08-09T08:07:04.562Z,8556.00
2018-08-09T08:08:04.488Z,8540.00
2018-08-09T08:09:04.425Z,8568.00
2018-08-09T08:10:04.362Z,8568.00
2018-08-09T08:11:04.303Z,8564.00
2018-08-09T08:12:04.226Z,8556.00
2018-08-09T08:13:04.152Z,8544.00
2018-08-09T08:14:04.088Z,8548.00
2018-08-09T08:15:04.050Z,8592.00
2018-08-09T08:16:03.951Z,8632.00
2018-08-09T08:17:03.889Z,8668.00
2018-08-09T08:18:03.825Z,8752.00
2018-08-09T08:19:03.752Z,8892.00
2018-08-09T08:20:03.689Z,8924.00
2018-08-09T08:21:03.614Z,8964.00
2018-08-09T08:22:03.552Z,8100.00
2018-08-09T08:23:03.489Z,8800.00
2018-08-09T08:24:03.414Z,9488.00
2018-08-09T08:25:03.352Z,8860.00
2018-08-09T08:26:03.290Z,10420.00
2018-08-09T08:27:03.214Z,9452.00
2018-08-09T08:28:03.152Z,10552.00
2018-08-09T08:29:03.090Z,11368.00
2018-08-09T08:30:03.017Z,14764.00
2018-08-09T08:31:02.954Z,12196.00
2018-08-09T08:32:02.893Z,11992.00
2018-08-09T08:33:02.816Z,13980.00
2018-08-09T08:34:02.754Z,12180.00
2018-08-09T08:35:02.691Z,11980.00
2018-08-09T08:36:02.619Z,11968.00
2018-08-09T08:37:02.554Z,12444.00
2018-08-09T08:38:02.480Z,12264.00
2018-08-09T08:39:02.417Z,13296.00
2018-08-09T08:40:02.365Z,12708.00
2018-08-09T08:41:02.279Z,13244.00
2018-08-09T08:42:02.216Z,11008.00
2018-08-09T08:43:02.155Z,11084.00
2018-08-09T08:44:02.080Z,11136.00
2018-08-09T08:45:02.022Z,10072.00
2018-08-09T08:46:01.957Z,10492.00
2018-08-09T08:47:01.884Z,10172.00
2018-08-09T08:48:01.818Z,10112.00
2018-08-09T08:49:01.790Z,10148.00
2018-08-09T08:50:01.683Z,10196.00
2018-08-09T08:51:01.618Z,10280.00
2018-08-09T08:52:01.556Z,10328.00
2018-08-09T08:53:01.596Z,10372.00
2018-08-09T08:54:01.418Z,10420.00
2018-08-09T08:55:01.356Z,10488.00
2018-08-09T08:56:01.282Z,10564.00
2018-08-09T08:57:01.219Z,10564.00
2018-08-09T08:58:01.157Z,10568.00
2018-08-09T08:59:01.093Z,10616.00
2018-08-09T09:00:01.019Z,10652.00
2018-08-09T09:01:01.026Z,10712.00
2018-08-09T09:02:00.898Z,10788.00
2018-08-09T09:03:00.832Z,10864.00
2018-08-09T09:04:00.757Z,10944.00
2018-08-09T09:05:00.752Z,11096.00
2018-08-09T09:06:00.633Z,11284.00
2018-08-09T09:07:00.585Z,11428.00
2018-08-09T09:08:00.494Z,11556.00
2018-08-09T09:09:00.433Z,11652.00
2018-08-09T09:10:00.370Z,11804.00
2018-08-09T09:11:00.308Z,11972.00
2018-08-09T09:12:00.252Z,12104.00
2018-08-09T09:13:00.174Z,12268.00
2018-08-09T09:14:00.109Z,12420.00
2018-08-09T09:15:00.060Z,12616.00
2018-08-09T09:15:59.971Z,12748.00
2018-08-09T09:16:59.908Z,12860.00
2018-08-09T09:17:59.845Z,12948.00
2018-08-09T09:18:59.783Z,13028.00
2018-08-09T09:19:59.720Z,13132.00
2018-08-09T09:20:59.647Z,13172.00
2018-08-09T09:21:59.587Z,13256.00
2018-08-09T09:22:59.521Z,13376.00
2018-08-09T09:23:59.459Z,13456.00
2018-08-09T09:24:59.384Z,13504.00
2018-08-09T09:25:59.321Z,13584.00
2018-08-09T09:26:59.286Z,13612.00
2018-08-09T09:27:59.197Z,13820.00
2018-08-09T09:28:59.137Z,13952.00
2018-08-09T09:29:59.060Z,14136.00
2018-08-09T09:30:58.997Z,14484.00
2018-08-09T09:31:58.935Z,14456.00
2018-08-09T09:32:58.876Z,13576.00
2018-08-09T09:33:58.813Z,12220.00
2018-08-09T09:34:58.768Z,12000.00
2018-08-09T09:35:58.672Z,11288.00
2018-08-09T09:36:58.614Z,11484.00
2018-08-09T09:37:58.550Z,9100.00
2018-08-09T09:38:58.487Z,8868.00
2018-08-09T09:39:58.412Z,8652.00
2018-08-09T09:40:58.354Z,8800.00
2018-08-09T09:41:58.286Z,8384.00
2018-08-09T09:42:58.236Z,14548.00
2018-08-09T09:43:58.168Z,14848.00
2018-08-09T09:44:58.086Z,13584.00
2018-08-09T09:45:58.029Z,13752.00
2018-08-09T09:46:57.962Z,12176.00
2018-08-09T09:47:57.898Z,10548.00
2018-08-09T09:48:57.826Z,8952.00
2018-08-09T09:49:57.762Z,8480.00
2018-08-09T09:50:57.699Z,9964.00
2018-08-09T09:51:57.637Z,12016.00
2018-08-09T09:52:57.562Z,15144.00
2018-08-09T09:53:57.499Z,15216.00
2018-08-09T09:54:57.486Z,14824.00
2018-08-09T09:55:57.425Z,8172.00
2018-08-09T09:56:57.299Z,7616.00
2018-08-09T09:57:57.238Z,7640.00
2018-08-09T09:58:57.175Z,7516.00
2018-08-09T09:59:57.101Z,7488.00
2018-08-09T10:00:57.038Z,7476.00
2018-08-09T10:01:57.014Z,7516.00
2018-08-09T10:02:56.902Z,7524.00
2018-08-09T10:03:56.838Z,7536.00
2018-08-09T10:04:56.776Z,7528.00
2018-08-09T10:05:56.702Z,7492.00
2018-08-09T10:06:56.681Z,7484.00
2018-08-09T10:07:56.580Z,7480.00
2018-08-09T10:08:56.501Z,7432.00
2018-08-09T10:09:56.439Z,7400.00
2018-08-09T10:10:56.376Z,7384.00
2018-08-09T10:11:56.302Z,7356.00
2018-08-09T10:12:56.242Z,7344.00
2018-08-09T10:13:56.168Z,7388.00
2018-08-09T10:14:56.102Z,7412.00
2018-08-09T10:15:56.039Z,7432.00
2018-08-09T10:16:55.968Z,7440.00
2018-08-09T10:17:55.901Z,7444.00
2018-08-09T10:18:55.828Z,7444.00
2018-08-09T10:19:55.766Z,7444.00
2018-08-09T10:20:55.693Z,7480.00
2018-08-09T10:21:55.627Z,7540.00
2018-08-09T10:22:55.566Z,7628.00
2018-08-09T10:23:55.491Z,7660.00
2018-08-09T10:24:55.428Z,7692.00
2018-08-09T10:25:55.352Z,7728.00
2018-08-09T10:26:55.293Z,7728.00
2018-08-09T10:27:55.228Z,7724.00
2018-08-09T10:28:55.165Z,7732.00
2018-08-09T10:29:55.134Z,7740.00
2018-08-09T10:30:55.028Z,7740.00
2018-08-09T10:31:54.955Z,7780.00
2018-08-09T10:32:54.879Z,7796.00
2018-08-09T10:33:54.817Z,7816.00
2018-08-09T10:34:54.742Z,7832.00
2018-08-09T10:35:54.679Z,7948.00
2018-08-09T10:36:54.604Z,8008.00
2018-08-09T10:37:54.543Z,8128.00
2018-08-09T10:38:54.468Z,10644.00
2018-08-09T10:39:54.408Z,7920.00
2018-08-09T10:40:54.330Z,8012.00
2018-08-09T10:41:54.268Z,8120.00
2018-08-09T10:42:54.205Z,8136.00
2018-08-09T10:43:54.133Z,8288.00
2018-08-09T10:44:54.069Z,8188.00
2018-08-09T10:45:53.994Z,9152.00
2018-08-09T10:46:54.533Z,9768.00
2018-08-09T10:47:53.856Z,8264.00
2018-08-09T10:48:53.829Z,8404.00
2018-08-09T10:49:53.719Z,8388.00
2018-08-09T10:50:53.656Z,8464.00
2018-08-09T10:51:53.581Z,8396.00
2018-08-09T10:52:53.520Z,9340.00
2018-08-09T10:53:53.457Z,12508.00
2018-08-09T10:54:53.382Z,23072.00
2018-08-09T10:55:53.321Z,22272.00
2018-08-09T10:56:53.249Z,14244.00
2018-08-09T10:57:53.182Z,13904.00
2018-08-09T10:58:53.123Z,21600.00
2018-08-09T10:59:53.048Z,34112.00
2018-08-09T11:00:52.982Z,41536.00
2018-08-09T11:01:52.913Z,49472.00
2018-08-09T11:02:52.846Z,57024.00
2018-08-09T11:03:52.782Z,67456.00
2018-08-09T11:04:52.709Z,80896.00
2018-08-09T11:05:52.645Z,93152.00
2018-08-09T11:06:52.583Z,100512.00
2018-08-09T11:07:52.722Z,101536.00
2018-08-09T11:08:53.058Z,97120.00
2018-08-09T11:09:52.383Z,94912.00
2018-08-09T11:10:52.321Z,95520.00
2018-08-09T11:11:52.260Z,95200.00
2018-08-09T11:12:52.196Z,92864.00
2018-08-09T11:13:52.122Z,95488.00
2018-08-09T11:14:52.058Z,96608.00
2018-08-09T11:15:51.999Z,93696.00
2018-08-09T11:16:51.994Z,92256.00
2018-08-09T11:17:51.873Z,91744.00
2018-08-09T11:18:51.811Z,92448.00
2018-08-09T11:19:51.750Z,94368.00
2018-08-09T11:20:51.672Z,99136.00
2018-08-09T11:21:51.609Z,104000.00
2018-08-09T11:22:51.548Z,106528.00
2018-08-09T11:23:51.485Z,110016.00
2018-08-09T11:24:51.423Z,114272.00
2018-08-09T11:25:51.360Z,120544.00
2018-08-09T11:26:51.298Z,127680.00
2018-08-09T11:27:51.235Z,132928.00
2018-08-09T11:28:51.174Z,130720.00
2018-08-09T11:29:51.111Z,140704.00
2018-08-09T11:30:51.049Z,138368.00
2018-08-09T11:31:50.985Z,136640.00
2018-08-09T11:32:50.924Z,138560.00
2018-08-09T11:33:50.862Z,136448.00
2018-08-09T11:34:50.787Z,130624.00
2018-08-09T11:35:50.724Z,131648.00
2018-08-09T11:36:50.664Z,125024.00
2018-08-09T11:37:50.602Z,123776.00
2018-08-09T11:38:50.537Z,123232.00
2018-08-09T11:39:50.477Z,120352.00
2018-08-09T11:40:50.411Z,115744.00
2018-08-09T11:41:50.350Z,114336.00
2018-08-09T11:42:50.287Z,110976.00
2018-08-09T11:43:50.225Z,112864.00
2018-08-09T11:44:50.165Z,111776.00
2018-08-09T11:45:50.099Z,108512.00
2018-08-09T11:46:50.038Z,105152.00
2018-08-09T11:47:49.976Z,104640.00
2018-08-09T11:48:49.912Z,106272.00
2018-08-09T11:49:49.851Z,106528.00
2018-08-09T11:50:49.788Z,103520.00
2018-08-09T11:51:49.726Z,102432.00
2018-08-09T11:52:49.663Z,100960.00
2018-08-09T11:53:49.601Z,99232.00
2018-08-09T11:54:49.541Z,99488.00
2018-08-09T11:55:49.477Z,100480.00
2018-08-09T11:56:49.449Z,96544.00
2018-08-09T11:57:49.352Z,93152.00
2018-08-09T11:58:49.301Z,90400.00
2018-08-09T11:59:49.232Z,87296.00
2018-08-09T12:00:49.164Z,81696.00
2018-08-09T12:01:49.162Z,78208.00
2018-08-09T12:02:49.039Z,74112.00
2018-08-09T12:03:48.978Z,72224.00
2018-08-09T12:04:48.918Z,69472.00
2018-08-09T12:05:48.852Z,70048.00
2018-08-09T12:06:48.818Z,70816.00
2018-08-09T12:07:48.729Z,71424.00
2018-08-09T12:08:48.664Z,71808.00
2018-08-09T12:09:48.603Z,69792.00
2018-08-09T12:10:48.540Z,69024.00
2018-08-09T12:11:48.479Z,69344.00
2018-08-09T12:12:48.415Z,71168.00
2018-08-09T12:13:48.354Z,72672.00
2018-08-09T12:14:48.307Z,71488.00
2018-08-09T12:15:48.232Z,72960.00
2018-08-09T12:16:48.166Z,71264.00
2018-08-09T12:17:48.104Z,71808.00
2018-08-09T12:18:48.042Z,69408.00